Patricia Ann — WDE2845 — position and weather

sailwx.info

Track history (hours):
 
Tides and Currents Weather Stations Pressure Air Temp Water Temp Dewpoint Dewpoint Depression Visibility Wind Speed Wind Dir Waves Ship Positions

Patricia Ann

Owner: AmNav Maritime Services, Oakland, CA. More information available from US FCC via Universal Licensing System and Coast Guard Vessel Documentation Center.

Last reported at 2014-Oct-02 07:33 UTC. Time now 2014-Oct-02 08:27 UTC.
Position N 37°49' W 122°19'.

Length 24 m; draft 4.9 m.

Type: Tug. MMSI: 367330510.

Date/timePositionNaut miles runAvg speedWind from/ knotsBaromVisibWave heightAir tempDewpointWater temp
2014-Oct-02 07:33N 37°49' W 122°19'0 0.0
2014-Oct-02 06:33N 37°49' W 122°19'0 0.0
2014-Oct-02 05:33N 37°49' W 122°19'0 0.0
2014-Oct-02 04:33N 37°49' W 122°19'0 0.0
2014-Oct-02 03:33N 37°49' W 122°19'0 0.0
2014-Oct-02 02:33N 37°49' W 122°19'2 1.7
2014-Oct-02 01:34N 37°48' W 122°18'1 0.7
2014-Oct-02 00:33N 37°48' W 122°19'1 1.2
2014-Oct-01 23:33N 37°49' W 122°19'0 0.3
2014-Oct-01 22:29N 37°49' W 122°19'0 0.0
2014-Oct-01 21:33N 37°49' W 122°19'0 0.0
2014-Oct-01 20:33N 37°49' W 122°19'0 0.0
2014-Oct-01 19:33N 37°49' W 122°19'0 0.0
2014-Oct-01 18:33N 37°49' W 122°19'0 0.0
2014-Oct-01 17:33N 37°49' W 122°19'0 0.0
2014-Oct-01 16:34N 37°49' W 122°19'0 0.0
2014-Oct-01 15:33N 37°49' W 122°19'0 0.2
2014-Oct-01 14:34N 37°49' W 122°19'1 1.4
2014-Oct-01 13:34N 37°48' W 122°19'2 2.0
2014-Oct-01 12:34N 37°48' W 122°22'1 1.3
2014-Oct-01 11:33N 37°48' W 122°20'0 0.3
2014-Oct-01 10:33N 37°49' W 122°20'0 0.0
2014-Oct-01 09:33N 37°49' W 122°20'0 0.0
2014-Oct-01 08:33N 37°49' W 122°20'0 0.0
2014-Oct-01 07:33N 37°49' W 122°20'1 1.3
2014-Oct-01 06:34N 37°49' W 122°19'0 0.0
2014-Oct-01 05:33N 37°49' W 122°19'0 0.0
2014-Oct-01 04:33N 37°49' W 122°19'0 0.0
2014-Oct-01 03:33N 37°49' W 122°19'0 0.0
2014-Oct-01 02:33N 37°49' W 122°19'0 0.0
2014-Oct-01 01:33N 37°49' W 122°19'0 0.2
2014-Oct-01 00:34N 37°49' W 122°19'3 2.7
2014-Sep-30 23:33N 37°48' W 122°22'7 6.6
2014-Sep-30 22:34N 37°54' W 122°25'1 0.8
2014-Sep-30 21:33N 37°55' W 122°25'2 1.9
2014-Sep-30 20:34N 37°53' W 122°25'6 5.5
2014-Sep-30 19:33N 37°49' W 122°21'2 1.8
2014-Sep-30 18:34N 37°49' W 122°19'0 0.0
2014-Sep-30 17:33N 37°49' W 122°19'0 0.0
2014-Sep-30 16:33N 37°49' W 122°19'0 0.0
2014-Sep-30 15:33N 37°49' W 122°19'0 0.0
2014-Sep-30 14:33N 37°49' W 122°19'1 0.7
2014-Sep-30 13:33N 37°49' W 122°19'1 1.1
2014-Sep-30 12:33N 37°48' W 122°21'0 0.0
2014-Sep-30 11:33N 37°48' W 122°21'1 1.2
2014-Sep-30 10:33N 37°49' W 122°19'0 0.1
2014-Sep-30 09:34N 37°49' W 122°19'0 0.0
2014-Sep-30 08:33N 37°49' W 122°19'1 0.5
2014-Sep-30 07:33N 37°49' W 122°20'1 0.8
2014-Sep-30 06:33N 37°48' W 122°21'2 1.9
2014-Sep-30 05:33N 37°49' W 122°19'0 0.0
2014-Sep-30 04:33N 37°49' W 122°19'0 0.0
2014-Sep-30 03:33N 37°49' W 122°19'0 0.0
2014-Sep-30 02:33N 37°49' W 122°19'0 0.0
2014-Sep-30 01:33N 37°49' W 122°19'1 1.0
2014-Sep-30 00:33N 37°49' W 122°20'2 1.8
2014-Sep-29 23:34N 37°48' W 122°18'2 2.4
2014-Sep-29 22:33N 37°48' W 122°21'2 2.1
2014-Sep-29 21:33N 37°49' W 122°19'0 0.0
2014-Sep-29 20:33N 37°49' W 122°19'0 0.0
2014-Sep-29 19:33N 37°49' W 122°19'0 0.0
2014-Sep-29 18:33N 37°49' W 122°19'0 0.0
2014-Sep-29 17:33N 37°49' W 122°19'0 0.0
2014-Sep-29 16:33N 37°49' W 122°19'2 1.8
2014-Sep-29 15:33N 37°49' W 122°21'7 7.4
2014-Sep-29 14:33N 37°55' W 122°25'2 2.2
2014-Sep-29 13:34N 37°53' W 122°25'1 1.2
2014-Sep-29 12:33N 37°52' W 122°24'5 4.8
2014-Sep-29 11:33N 37°48' W 122°21'0 0.0
2014-Sep-29 10:33N 37°48' W 122°21'1 0.6
2014-Sep-29 09:33N 37°49' W 122°20'1 1.0
2014-Sep-29 08:33N 37°49' W 122°19'0 0.2
2014-Sep-29 07:33N 37°49' W 122°19'0 0.0
2014-Sep-29 06:33N 37°49' W 122°19'0 0.0
2014-Sep-29 05:34N 37°49' W 122°19'0 0.0
2014-Sep-29 04:33N 37°49' W 122°19'0 0.0
2014-Sep-29 03:34N 37°49' W 122°19'0 0.0
2014-Sep-29 02:33N 37°49' W 122°19'2 1.5
2014-Sep-29 01:26N 37°48' W 122°19'1 1.0
2014-Sep-29 00:33N 37°48' W 122°18'3 2.6
2014-Sep-28 23:33N 37°48' W 122°21'2 1.8
2014-Sep-28 22:33N 37°49' W 122°19'0 0.0
2014-Sep-28 21:33N 37°49' W 122°19'0 0.0
2014-Sep-28 20:33N 37°49' W 122°19'0 0.0
2014-Sep-28 19:33N 37°49' W 122°19'0 0.0
2014-Sep-28 18:34N 37°49' W 122°19'0 0.0
2014-Sep-28 17:33N 37°49' W 122°19'0 0.0
2014-Sep-28 16:33N 37°49' W 122°19'0 0.0
2014-Sep-28 15:33N 37°49' W 122°19'0 0.0
2014-Sep-28 14:33N 37°49' W 122°19'0 0.0
2014-Sep-28 13:33N 37°49' W 122°19'0 0.0
2014-Sep-28 12:33N 37°49' W 122°19'0 0.0
2014-Sep-28 11:33N 37°49' W 122°19'0 0.0
2014-Sep-28 10:33N 37°49' W 122°19'0 0.0
2014-Sep-28 09:33N 37°49' W 122°19'0 0.0
2014-Sep-28 08:33N 37°49' W 122°19'0 0.0
2014-Sep-28 07:33N 37°49' W 122°19'0 0.0
2014-Sep-28 06:33N 37°49' W 122°19'0 0.0
2014-Sep-28 05:33N 37°49' W 122°19'0 0.0
2014-Sep-28 04:33N 37°49' W 122°19'0 0.0
2014-Sep-28 03:33N 37°49' W 122°19'0 0.0
2014-Sep-28 02:33N 37°49' W 122°19'1 0.7
2014-Sep-28 01:33N 37°49' W 122°19'0 0.3
2014-Sep-28 00:34N 37°49' W 122°20'1 0.7
2014-Sep-27 23:34N 37°49' W 122°19'0 0.5
2014-Sep-27 22:33N 37°49' W 122°19'0 0.2
2014-Sep-27 21:33N 37°49' W 122°20'1 0.8
2014-Sep-27 20:33N 37°49' W 122°19'0 0.0
2014-Sep-27 19:33N 37°49' W 122°19'0 0.0
2014-Sep-27 18:33N 37°49' W 122°19'0 0.0
2014-Sep-27 17:33N 37°49' W 122°19'0 0.0
2014-Sep-27 16:33N 37°49' W 122°19'0 0.0
2014-Sep-27 15:33N 37°49' W 122°19'4 4.3
2014-Sep-27 14:33N 37°48' W 122°24'2 1.8
2014-Sep-27 13:33N 37°49' W 122°26'4 4.3
2014-Sep-27 12:34N 37°48' W 122°21'1 1.0
2014-Sep-27 11:33N 37°48' W 122°20'2 1.6
2014-Sep-27 10:33N 37°49' W 122°19'0 0.0
2014-Sep-27 09:33N 37°49' W 122°19'0 0.0
2014-Sep-27 08:33N 37°49' W 122°19'0 0.0
2014-Sep-27 07:33N 37°49' W 122°19'0 0.0
2014-Sep-27 06:34N 37°49' W 122°19'0 0.0
2014-Sep-27 05:33N 37°49' W 122°19'0 0.0
2014-Sep-27 04:33N 37°49' W 122°19'0 0.0
2014-Sep-27 03:33N 37°49' W 122°19'0 0.0
2014-Sep-27 02:33N 37°49' W 122°19'1 0.6
2014-Sep-27 01:33N 37°49' W 122°19'1 0.6
2014-Sep-27 00:33N 37°49' W 122°19'0 0.0
2014-Sep-26 23:33N 37°49' W 122°19'0 0.0
2014-Sep-26 22:33N 37°49' W 122°19'0 0.0
2014-Sep-26 21:33N 37°49' W 122°19'0 0.0
2014-Sep-26 20:33N 37°49' W 122°19'0 0.0
2014-Sep-26 19:33N 37°49' W 122°19'0 0.0
2014-Sep-26 18:33N 37°49' W 122°19'0 0.0
2014-Sep-26 17:33N 37°49' W 122°19'0 0.0
2014-Sep-26 16:33N 37°49' W 122°19'1 1.3
2014-Sep-26 15:33N 37°49' W 122°20'2 2.5
2014-Sep-26 14:33N 37°48' W 122°17'3 3.5
2014-Sep-26 13:33N 37°48' W 122°22'3 2.8
2014-Sep-26 12:33N 37°49' W 122°19'0 0.0
2014-Sep-26 11:34N 37°49' W 122°19'0 0.0
2014-Sep-26 10:34N 37°49' W 122°19'0 0.0
2014-Sep-26 09:33N 37°49' W 122°19'0 0.0
2014-Sep-26 08:34N 37°49' W 122°19'0 0.0
2014-Sep-26 07:33N 37°49' W 122°19'0 0.0
2014-Sep-26 06:34N 37°49' W 122°19'0 0.0
2014-Sep-26 05:33N 37°49' W 122°19'0 0.0
2014-Sep-26 04:33N 37°49' W 122°19'0 0.0
2014-Sep-26 03:33N 37°49' W 122°19'1 0.7
2014-Sep-26 02:33N 37°49' W 122°19'0 0.4
2014-Sep-26 01:33N 37°49' W 122°19'0 0.3
2014-Sep-26 00:33N 37°49' W 122°19'0 0.0
2014-Sep-25 23:33N 37°49' W 122°19'0 0.0
2014-Sep-25 22:33N 37°49' W 122°19'0 0.0
2014-Sep-25 21:33N 37°49' W 122°19'0 0.0
2014-Sep-25 20:33N 37°49' W 122°19'2 2.3
2014-Sep-25 19:33N 37°48' W 122°21'2 2.1
2014-Sep-25 18:33N 37°48' W 122°24'1 0.9
2014-Sep-25 17:33N 37°49' W 122°25'5 4.8
2014-Sep-25 16:34N 37°49' W 122°19'0 0.1
2014-Sep-25 15:34N 37°49' W 122°19'0 0.0
2014-Sep-25 14:33N 37°49' W 122°19'0 0.0
2014-Sep-25 13:34N 37°49' W 122°19'0 0.0
2014-Sep-25 12:34N 37°49' W 122°19'0 0.0
2014-Sep-25 11:34N 37°49' W 122°19'0 0.0
2014-Sep-25 10:33N 37°49' W 122°19'0 0.0
2014-Sep-25 09:34N 37°49' W 122°19'0 0.0
2014-Sep-25 08:34N 37°49' W 122°19'0 0.0
2014-Sep-25 07:34N 37°49' W 122°19'0 0.0
2014-Sep-25 06:34N 37°49' W 122°19'0 0.0
2014-Sep-25 05:34N 37°49' W 122°19'0 0.0
2014-Sep-25 04:33N 37°49' W 122°19'0 0.0
2014-Sep-25 03:34N 37°49' W 122°19'0 0.0
2014-Sep-25 02:34N 37°49' W 122°19'0 0.0
2014-Sep-25 01:34N 37°49' W 122°19'0 0.2
2014-Sep-25 00:34N 37°49' W 122°19'1 0.6
2014-Sep-24 23:33N 37°49' W 122°19'1 0.8
2014-Sep-24 22:34N 37°49' W 122°19'2 1.8
2014-Sep-24 21:33N 37°48' W 122°18'2 2.0
2014-Sep-24 20:34N 37°48' W 122°20'2 1.8
2014-Sep-24 19:34N 37°49' W 122°19'0 0.0
2014-Sep-24 18:34N 37°49' W 122°19'0 0.0
2014-Sep-24 17:33N 37°49' W 122°19'0 0.0
2014-Sep-24 16:33N 37°49' W 122°19'2 1.8
2014-Sep-24 15:33N 37°48' W 122°21'2 2.1
2014-Sep-24 14:34N 37°48' W 122°18'3 2.7
2014-Sep-24 13:33N 37°48' W 122°21'1 0.7
2014-Sep-24 12:33N 37°48' W 122°21'2 1.6
2014-Sep-24 11:34N 37°48' W 122°19'0 0.5
2014-Sep-24 10:33N 37°48' W 122°19'2 1.6
2014-Sep-24 09:33N 37°49' W 122°19'0 0.0
2014-Sep-24 08:33N 37°49' W 122°19'0 0.0
2014-Sep-24 07:34N 37°49' W 122°19'0 0.0
2014-Sep-24 06:33N 37°49' W 122°19'0 0.0
2014-Sep-24 05:33N 37°49' W 122°19'0 0.0
2014-Sep-24 04:33N 37°49' W 122°19'0 0.0
2014-Sep-24 03:33N 37°49' W 122°19'2 1.7
2014-Sep-24 02:34N 37°48' W 122°21'1 1.1
2014-Sep-24 01:33N 37°48' W 122°19'1 1.1
2014-Sep-24 00:33N 37°49' W 122°19'1 0.8
2014-Sep-23 23:33N 37°49' W 122°20'1 1.2
2014-Sep-23 22:33N 37°49' W 122°19'0 0.0
2014-Sep-23 21:33N 37°49' W 122°19'0 0.0
2014-Sep-23 20:33N 37°49' W 122°19'0 0.0
2014-Sep-23 19:33N 37°49' W 122°19'0 0.0
2014-Sep-23 18:34N 37°49' W 122°19'0 0.0
2014-Sep-23 17:33N 37°49' W 122°19'0 0.0
2014-Sep-23 16:33N 37°49' W 122°19'0 0.0
2014-Sep-23 15:33N 37°49' W 122°19'0 0.0
2014-Sep-23 14:33N 37°49' W 122°19'0 0.0
2014-Sep-23 13:33N 37°49' W 122°19'2 1.9
2014-Sep-23 12:33N 37°48' W 122°18'3 3.2
2014-Sep-23 11:33N 37°48' W 122°22'1 1.1
2014-Sep-23 10:33N 37°48' W 122°21'0 0.0
2014-Sep-23 09:33N 37°48' W 122°21'1 1.3
2014-Sep-23 08:33N 37°49' W 122°19'0 0.4
2014-Sep-23 07:33N 37°49' W 122°19'0 0.0
2014-Sep-23 06:33N 37°49' W 122°19'0 0.0
2014-Sep-23 05:33N 37°49' W 122°19'0 0.0
2014-Sep-23 04:33N 37°49' W 122°19'0 0.0
2014-Sep-23 03:33N 37°49' W 122°19'0 0.0
2014-Sep-23 02:33N 37°49' W 122°19'0 0.0
2014-Sep-23 01:33N 37°49' W 122°19'1 0.7
2014-Sep-23 00:33N 37°49' W 122°19'2 1.6
2014-Sep-22 23:33N 37°48' W 122°18'2 1.6
2014-Sep-22 22:33N 37°48' W 122°20'2 1.7
2014-Sep-22 21:33N 37°49' W 122°19'0 0.0
2014-Sep-22 20:33N 37°49' W 122°19'0 0.0
2014-Sep-22 19:33N 37°49' W 122°19'0 0.0
2014-Sep-22 18:33N 37°49' W 122°19'0 0.0
2014-Sep-22 17:33N 37°49' W 122°19'0 0.0
2014-Sep-22 16:33N 37°49' W 122°19'0 0.0
2014-Sep-22 15:33N 37°49' W 122°19'0 0.0
2014-Sep-22 14:33N 37°49' W 122°19'0 0.0
2014-Sep-22 13:33N 37°49' W 122°19'0 0.0
2014-Sep-22 12:33N 37°49' W 122°19'0 0.0
2014-Sep-22 11:33N 37°49' W 122°19'0 0.0
2014-Sep-22 10:33N 37°49' W 122°19'0 0.0
2014-Sep-22 09:33N 37°49' W 122°19'0 0.0
2014-Sep-22 08:34N 37°49' W 122°19'1 0.7
2014-Sep-22 07:34N 37°49' W 122°19'  
Track history (hours):
 
Tides and Currents Weather Stations Pressure Air Temp Water Temp Dewpoint Dewpoint Depression Visibility Wind Speed Wind Dir Waves Ship Positions

Patricia Ann

Owner: AmNav Maritime Services, Oakland, CA. More information available from US FCC via Universal Licensing System and Coast Guard Vessel Documentation Center.

Last reported at 2014-Oct-02 07:33 UTC. Time now 2014-Oct-02 08:27 UTC.
Position N 37°49' W 122°19'.

Length 24 m; draft 4.9 m.

Type: Tug. MMSI: 367330510.

Date/timePositionNaut miles runAvg speedWind from/ knotsBaromVisibWave heightAir tempDewpointWater temp
2014-Oct-02 07:33N 37°49' W 122°19'0 0.0
2014-Oct-02 06:33N 37°49' W 122°19'0 0.0
2014-Oct-02 05:33N 37°49' W 122°19'0 0.0
2014-Oct-02 04:33N 37°49' W 122°19'0 0.0
2014-Oct-02 03:33N 37°49' W 122°19'0 0.0
2014-Oct-02 02:33N 37°49' W 122°19'2 1.7
2014-Oct-02 01:34N 37°48' W 122°18'1 0.7
2014-Oct-02 00:33N 37°48' W 122°19'1 1.2
2014-Oct-01 23:33N 37°49' W 122°19'0 0.3
2014-Oct-01 22:29N 37°49' W 122°19'0 0.0
2014-Oct-01 21:33N 37°49' W 122°19'0 0.0
2014-Oct-01 20:33N 37°49' W 122°19'0 0.0
2014-Oct-01 19:33N 37°49' W 122°19'0 0.0
2014-Oct-01 18:33N 37°49' W 122°19'0 0.0
2014-Oct-01 17:33N 37°49' W 122°19'0 0.0
2014-Oct-01 16:34N 37°49' W 122°19'0 0.0
2014-Oct-01 15:33N 37°49' W 122°19'0 0.2
2014-Oct-01 14:34N 37°49' W 122°19'1 1.4
2014-Oct-01 13:34N 37°48' W 122°19'2 2.0
2014-Oct-01 12:34N 37°48' W 122°22'1 1.3
2014-Oct-01 11:33N 37°48' W 122°20'0 0.3
2014-Oct-01 10:33N 37°49' W 122°20'0 0.0
2014-Oct-01 09:33N 37°49' W 122°20'0 0.0
2014-Oct-01 08:33N 37°49' W 122°20'0 0.0
2014-Oct-01 07:33N 37°49' W 122°20'1 1.3
2014-Oct-01 06:34N 37°49' W 122°19'0 0.0
2014-Oct-01 05:33N 37°49' W 122°19'0 0.0
2014-Oct-01 04:33N 37°49' W 122°19'0 0.0
2014-Oct-01 03:33N 37°49' W 122°19'0 0.0
2014-Oct-01 02:33N 37°49' W 122°19'0 0.0
2014-Oct-01 01:33N 37°49' W 122°19'0 0.2
2014-Oct-01 00:34N 37°49' W 122°19'3 2.7
2014-Sep-30 23:33N 37°48' W 122°22'7 6.6
2014-Sep-30 22:34N 37°54' W 122°25'1 0.8
2014-Sep-30 21:33N 37°55' W 122°25'2 1.9
2014-Sep-30 20:34N 37°53' W 122°25'6 5.5
2014-Sep-30 19:33N 37°49' W 122°21'2 1.8
2014-Sep-30 18:34N 37°49' W 122°19'0 0.0
2014-Sep-30 17:33N 37°49' W 122°19'0 0.0
2014-Sep-30 16:33N 37°49' W 122°19'0 0.0
2014-Sep-30 15:33N 37°49' W 122°19'0 0.0
2014-Sep-30 14:33N 37°49' W 122°19'1 0.7
2014-Sep-30 13:33N 37°49' W 122°19'1 1.1
2014-Sep-30 12:33N 37°48' W 122°21'0 0.0
2014-Sep-30 11:33N 37°48' W 122°21'1 1.2
2014-Sep-30 10:33N 37°49' W 122°19'0 0.1
2014-Sep-30 09:34N 37°49' W 122°19'0 0.0
2014-Sep-30 08:33N 37°49' W 122°19'1 0.5
2014-Sep-30 07:33N 37°49' W 122°20'1 0.8
2014-Sep-30 06:33N 37°48' W 122°21'2 1.9
2014-Sep-30 05:33N 37°49' W 122°19'0 0.0
2014-Sep-30 04:33N 37°49' W 122°19'0 0.0
2014-Sep-30 03:33N 37°49' W 122°19'0 0.0
2014-Sep-30 02:33N 37°49' W 122°19'0 0.0
2014-Sep-30 01:33N 37°49' W 122°19'1 1.0
2014-Sep-30 00:33N 37°49' W 122°20'2 1.8
2014-Sep-29 23:34N 37°48' W 122°18'2 2.4
2014-Sep-29 22:33N 37°48' W 122°21'2 2.1
2014-Sep-29 21:33N 37°49' W 122°19'0 0.0
2014-Sep-29 20:33N 37°49' W 122°19'0 0.0
2014-Sep-29 19:33N 37°49' W 122°19'0 0.0
2014-Sep-29 18:33N 37°49' W 122°19'0 0.0
2014-Sep-29 17:33N 37°49' W 122°19'0 0.0
2014-Sep-29 16:33N 37°49' W 122°19'2 1.8
2014-Sep-29 15:33N 37°49' W 122°21'7 7.4
2014-Sep-29 14:33N 37°55' W 122°25'2 2.2
2014-Sep-29 13:34N 37°53' W 122°25'1 1.2
2014-Sep-29 12:33N 37°52' W 122°24'5 4.8
2014-Sep-29 11:33N 37°48' W 122°21'0 0.0
2014-Sep-29 10:33N 37°48' W 122°21'1 0.6
2014-Sep-29 09:33N 37°49' W 122°20'1 1.0
2014-Sep-29 08:33N 37°49' W 122°19'0 0.2
2014-Sep-29 07:33N 37°49' W 122°19'0 0.0
2014-Sep-29 06:33N 37°49' W 122°19'0 0.0
2014-Sep-29 05:34N 37°49' W 122°19'0 0.0
2014-Sep-29 04:33N 37°49' W 122°19'0 0.0
2014-Sep-29 03:34N 37°49' W 122°19'0 0.0
2014-Sep-29 02:33N 37°49' W 122°19'2 1.5
2014-Sep-29 01:26N 37°48' W 122°19'1 1.0
2014-Sep-29 00:33N 37°48' W 122°18'3 2.6
2014-Sep-28 23:33N 37°48' W 122°21'2 1.8
2014-Sep-28 22:33N 37°49' W 122°19'0 0.0
2014-Sep-28 21:33N 37°49' W 122°19'0 0.0
2014-Sep-28 20:33N 37°49' W 122°19'0 0.0
2014-Sep-28 19:33N 37°49' W 122°19'0 0.0
2014-Sep-28 18:34N 37°49' W 122°19'0 0.0
2014-Sep-28 17:33N 37°49' W 122°19'0 0.0
2014-Sep-28 16:33N 37°49' W 122°19'0 0.0
2014-Sep-28 15:33N 37°49' W 122°19'0 0.0
2014-Sep-28 14:33N 37°49' W 122°19'0 0.0
2014-Sep-28 13:33N 37°49' W 122°19'0 0.0
2014-Sep-28 12:33N 37°49' W 122°19'0 0.0
2014-Sep-28 11:33N 37°49' W 122°19'0 0.0
2014-Sep-28 10:33N 37°49' W 122°19'0 0.0
2014-Sep-28 09:33N 37°49' W 122°19'0 0.0
2014-Sep-28 08:33N 37°49' W 122°19'0 0.0
2014-Sep-28 07:33N 37°49' W 122°19'0 0.0
2014-Sep-28 06:33N 37°49' W 122°19'0 0.0
2014-Sep-28 05:33N 37°49' W 122°19'0 0.0
2014-Sep-28 04:33N 37°49' W 122°19'0 0.0
2014-Sep-28 03:33N 37°49' W 122°19'0 0.0
2014-Sep-28 02:33N 37°49' W 122°19'1 0.7
2014-Sep-28 01:33N 37°49' W 122°19'0 0.3
2014-Sep-28 00:34N 37°49' W 122°20'1 0.7
2014-Sep-27 23:34N 37°49' W 122°19'0 0.5
2014-Sep-27 22:33N 37°49' W 122°19'0 0.2
2014-Sep-27 21:33N 37°49' W 122°20'1 0.8
2014-Sep-27 20:33N 37°49' W 122°19'0 0.0
2014-Sep-27 19:33N 37°49' W 122°19'0 0.0
2014-Sep-27 18:33N 37°49' W 122°19'0 0.0
2014-Sep-27 17:33N 37°49' W 122°19'0 0.0
2014-Sep-27 16:33N 37°49' W 122°19'0 0.0
2014-Sep-27 15:33N 37°49' W 122°19'4 4.3
2014-Sep-27 14:33N 37°48' W 122°24'2 1.8
2014-Sep-27 13:33N 37°49' W 122°26'4 4.3
2014-Sep-27 12:34N 37°48' W 122°21'1 1.0
2014-Sep-27 11:33N 37°48' W 122°20'2 1.6
2014-Sep-27 10:33N 37°49' W 122°19'0 0.0
2014-Sep-27 09:33N 37°49' W 122°19'0 0.0
2014-Sep-27 08:33N 37°49' W 122°19'0 0.0
2014-Sep-27 07:33N 37°49' W 122°19'0 0.0
2014-Sep-27 06:34N 37°49' W 122°19'0 0.0
2014-Sep-27 05:33N 37°49' W 122°19'0 0.0
2014-Sep-27 04:33N 37°49' W 122°19'0 0.0
2014-Sep-27 03:33N 37°49' W 122°19'0 0.0
2014-Sep-27 02:33N 37°49' W 122°19'1 0.6
2014-Sep-27 01:33N 37°49' W 122°19'1 0.6
2014-Sep-27 00:33N 37°49' W 122°19'0 0.0
2014-Sep-26 23:33N 37°49' W 122°19'0 0.0
2014-Sep-26 22:33N 37°49' W 122°19'0 0.0
2014-Sep-26 21:33N 37°49' W 122°19'0 0.0
2014-Sep-26 20:33N 37°49' W 122°19'0 0.0
2014-Sep-26 19:33N 37°49' W 122°19'0 0.0
2014-Sep-26 18:33N 37°49' W 122°19'0 0.0
2014-Sep-26 17:33N 37°49' W 122°19'0 0.0
2014-Sep-26 16:33N 37°49' W 122°19'1 1.3
2014-Sep-26 15:33N 37°49' W 122°20'2 2.5
2014-Sep-26 14:33N 37°48' W 122°17'3 3.5
2014-Sep-26 13:33N 37°48' W 122°22'3 2.8
2014-Sep-26 12:33N 37°49' W 122°19'0 0.0
2014-Sep-26 11:34N 37°49' W 122°19'0 0.0
2014-Sep-26 10:34N 37°49' W 122°19'0 0.0
2014-Sep-26 09:33N 37°49' W 122°19'0 0.0
2014-Sep-26 08:34N 37°49' W 122°19'0 0.0
2014-Sep-26 07:33N 37°49' W 122°19'0 0.0
2014-Sep-26 06:34N 37°49' W 122°19'0 0.0
2014-Sep-26 05:33N 37°49' W 122°19'0 0.0
2014-Sep-26 04:33N 37°49' W 122°19'0 0.0
2014-Sep-26 03:33N 37°49' W 122°19'1 0.7
2014-Sep-26 02:33N 37°49' W 122°19'0 0.4
2014-Sep-26 01:33N 37°49' W 122°19'0 0.3
2014-Sep-26 00:33N 37°49' W 122°19'0 0.0
2014-Sep-25 23:33N 37°49' W 122°19'0 0.0
2014-Sep-25 22:33N 37°49' W 122°19'0 0.0
2014-Sep-25 21:33N 37°49' W 122°19'0 0.0
2014-Sep-25 20:33N 37°49' W 122°19'2 2.3
2014-Sep-25 19:33N 37°48' W 122°21'2 2.1
2014-Sep-25 18:33N 37°48' W 122°24'1 0.9
2014-Sep-25 17:33N 37°49' W 122°25'5 4.8
2014-Sep-25 16:34N 37°49' W 122°19'0 0.1
2014-Sep-25 15:34N 37°49' W 122°19'0 0.0
2014-Sep-25 14:33N 37°49' W 122°19'0 0.0
2014-Sep-25 13:34N 37°49' W 122°19'0 0.0
2014-Sep-25 12:34N 37°49' W 122°19'0 0.0
2014-Sep-25 11:34N 37°49' W 122°19'0 0.0
2014-Sep-25 10:33N 37°49' W 122°19'0 0.0
2014-Sep-25 09:34N 37°49' W 122°19'0 0.0
2014-Sep-25 08:34N 37°49' W 122°19'0 0.0
2014-Sep-25 07:34N 37°49' W 122°19'0 0.0
2014-Sep-25 06:34N 37°49' W 122°19'0 0.0
2014-Sep-25 05:34N 37°49' W 122°19'0 0.0
2014-Sep-25 04:33N 37°49' W 122°19'0 0.0
2014-Sep-25 03:34N 37°49' W 122°19'0 0.0
2014-Sep-25 02:34N 37°49' W 122°19'0 0.0
2014-Sep-25 01:34N 37°49' W 122°19'0 0.2
2014-Sep-25 00:34N 37°49' W 122°19'1 0.6
2014-Sep-24 23:33N 37°49' W 122°19'1 0.8
2014-Sep-24 22:34N 37°49' W 122°19'2 1.8
2014-Sep-24 21:33N 37°48' W 122°18'2 2.0
2014-Sep-24 20:34N 37°48' W 122°20'2 1.8
2014-Sep-24 19:34N 37°49' W 122°19'0 0.0
2014-Sep-24 18:34N 37°49' W 122°19'0 0.0
2014-Sep-24 17:33N 37°49' W 122°19'0 0.0
2014-Sep-24 16:33N 37°49' W 122°19'2 1.8
2014-Sep-24 15:33N 37°48' W 122°21'2 2.1
2014-Sep-24 14:34N 37°48' W 122°18'3 2.7
2014-Sep-24 13:33N 37°48' W 122°21'1 0.7
2014-Sep-24 12:33N 37°48' W 122°21'2 1.6
2014-Sep-24 11:34N 37°48' W 122°19'0 0.5
2014-Sep-24 10:33N 37°48' W 122°19'2 1.6
2014-Sep-24 09:33N 37°49' W 122°19'0 0.0
2014-Sep-24 08:33N 37°49' W 122°19'0 0.0
2014-Sep-24 07:34N 37°49' W 122°19'0 0.0
2014-Sep-24 06:33N 37°49' W 122°19'0 0.0
2014-Sep-24 05:33N 37°49' W 122°19'0 0.0
2014-Sep-24 04:33N 37°49' W 122°19'0 0.0
2014-Sep-24 03:33N 37°49' W 122°19'2 1.7
2014-Sep-24 02:34N 37°48' W 122°21'1 1.1
2014-Sep-24 01:33N 37°48' W 122°19'1 1.1
2014-Sep-24 00:33N 37°49' W 122°19'1 0.8
2014-Sep-23 23:33N 37°49' W 122°20'1 1.2
2014-Sep-23 22:33N 37°49' W 122°19'0 0.0
2014-Sep-23 21:33N 37°49' W 122°19'0 0.0
2014-Sep-23 20:33N 37°49' W 122°19'0 0.0
2014-Sep-23 19:33N 37°49' W 122°19'0 0.0
2014-Sep-23 18:34N 37°49' W 122°19'0 0.0
2014-Sep-23 17:33N 37°49' W 122°19'0 0.0
2014-Sep-23 16:33N 37°49' W 122°19'0 0.0
2014-Sep-23 15:33N 37°49' W 122°19'0 0.0
2014-Sep-23 14:33N 37°49' W 122°19'0 0.0
2014-Sep-23 13:33N 37°49' W 122°19'2 1.9
2014-Sep-23 12:33N 37°48' W 122°18'3 3.2
2014-Sep-23 11:33N 37°48' W 122°22'1 1.1
2014-Sep-23 10:33N 37°48' W 122°21'0 0.0
2014-Sep-23 09:33N 37°48' W 122°21'1 1.3
2014-Sep-23 08:33N 37°49' W 122°19'0 0.4
2014-Sep-23 07:33N 37°49' W 122°19'0 0.0
2014-Sep-23 06:33N 37°49' W 122°19'0 0.0
2014-Sep-23 05:33N 37°49' W 122°19'0 0.0
2014-Sep-23 04:33N 37°49' W 122°19'0 0.0
2014-Sep-23 03:33N 37°49' W 122°19'0 0.0
2014-Sep-23 02:33N 37°49' W 122°19'0 0.0
2014-Sep-23 01:33N 37°49' W 122°19'1 0.7
2014-Sep-23 00:33N 37°49' W 122°19'2 1.6
2014-Sep-22 23:33N 37°48' W 122°18'2 1.6
2014-Sep-22 22:33N 37°48' W 122°20'2 1.7
2014-Sep-22 21:33N 37°49' W 122°19'0 0.0
2014-Sep-22 20:33N 37°49' W 122°19'0 0.0
2014-Sep-22 19:33N 37°49' W 122°19'0 0.0
2014-Sep-22 18:33N 37°49' W 122°19'0 0.0
2014-Sep-22 17:33N 37°49' W 122°19'0 0.0
2014-Sep-22 16:33N 37°49' W 122°19'0 0.0
2014-Sep-22 15:33N 37°49' W 122°19'0 0.0
2014-Sep-22 14:33N 37°49' W 122°19'0 0.0
2014-Sep-22 13:33N 37°49' W 122°19'0 0.0
2014-Sep-22 12:33N 37°49' W 122°19'0 0.0
2014-Sep-22 11:33N 37°49' W 122°19'0 0.0
2014-Sep-22 10:33N 37°49' W 122°19'0 0.0
2014-Sep-22 09:33N 37°49' W 122°19'0 0.0
2014-Sep-22 08:34N 37°49' W 122°19'1 0.7
2014-Sep-22 07:34N 37°49' W 122°19'  

Dump ship's entire track history